Silver Ridge, Maine
Current Conditions -  °F | °C
As of 7:42 AM on Monday 20 Oct 2014 (Local Time) from KMLT Reporting Station
Overcast Overcast  
Wind Chill: 30°   Ceiling: 2900
Heat Index: 38°   Visibility: 10mi
Dew Point: 27°   Wind: 12mph
Humidity: 65%   Direction: 290°WNW
Pressure: 29.86"   Gusts: 22mph
Location:  45.8047°N, 68.2984°W
Report Text: KMLT 201142Z AUTO 29010G19KT 10SM OVC029 03/M03 A2986 RMK AO2 T00331028
Loading
Personal Weather Stations






























Interactive Weather Map New forecast layout! Learn more

10-Day Weather Forecast

Advertisements
Track Severe Weather on mobile